Погода Пализадана неделю

Кампече, Мексика

23 - 29 февраля
  • 23февраля
    Сегодня
    +17°
    +34°
    Ясно и безоблачно
    ВремяПогодаТемператураВлажностьДавлениеВетер, м/сВероятность осадков
    00:00Ясно и безоблачно+20°C70 %758 мм3.0 м/с2 %
    03:00Ясно и безоблачно+18°C77 %757 мм3.5 м/с2 %
    06:00Ясно и безоблачно+17°C83 %758 мм3.4 м/с2 %
    09:00Ясно и безоблачно+23°C71 %759 мм2.8 м/с2 %
    12:00Ясно и безоблачно+28°C53 %759 мм0.8 м/с2 %
    15:00Ясно и безоблачно+34°C43 %758 мм1.1 м/с2 %
    18:00Ясно и безоблачно+27°C55 %758 мм2.9 м/с2 %
    21:00Ясно и безоблачно+20°C81 %761 мм2.0 м/с2 %
  • 24февраля
    Суббота
    +17°
    +30°
    Небольшая облачность
    ВремяПогодаТемператураВлажностьДавлениеВетер, м/сВероятность осадков
    00:00Ясно и безоблачно+19°C94 %761 мм2.1 м/с2 %
    03:00Ясно и безоблачно+18°C98 %762 мм2.0 м/с2 %
    06:00Практически безоблачно+18°C99 %763 мм1.5 м/с2 %
    09:00Небольшая облачность+24°C81 %765 мм1.4 м/с24 %
    12:00Небольшая облачность+27°C57 %764 мм1.4 м/с13 %
    15:00Небольшая облачность+30°C53 %763 мм2.6 м/с6 %
    18:00Ясно и безоблачно+25°C70 %764 мм3.4 м/с3 %
    21:00Ясно и безоблачно+20°C93 %765 мм2.0 м/с2 %
  • 25февраля
    Воскресенье
    +18°
    +32°
    Облачно с прояснениями
    ВремяПогодаТемператураВлажностьДавлениеВетер, м/сВероятность осадков
    00:00Ясно и безоблачно+20°C94 %765 мм1.9 м/с1 %
    03:00Практически безоблачно+20°C92 %764 мм0.7 м/с2 %
    06:00Облачно с прояснениями+18°C99 %765 мм0.8 м/с2 %
    09:00Практически безоблачно+24°C78 %766 мм1.3 м/с2 %
    12:00Облачно с прояснениями+28°C53 %765 мм2.1 м/с2 %
    15:00Облачно с прояснениями+32°C53 %762 мм2.7 м/с2 %
    18:00Ясно и безоблачно+27°C67 %762 мм1.9 м/с2 %
    21:00Ясно и безоблачно+21°C84 %764 мм3.4 м/с2 %
  • 26февраля
    Понедельник
    +19°
    +35°
    Ясно и безоблачно
    ВремяПогодаТемператураВлажностьДавлениеВетер, м/сВероятность осадков
    00:00Ясно и безоблачно+22°C87 %764 мм3.1 м/с2 %
    03:00Ясно и безоблачно+20°C94 %762 мм1.6 м/с2 %
    06:00Ясно и безоблачно+18°C97 %763 мм1.8 м/с2 %
    09:00Ясно и безоблачно+25°C77 %764 мм3.1 м/с2 %
    12:00Ясно и безоблачно+29°C55 %763 мм3.5 м/с2 %
    15:00Ясно и безоблачно+34°C47 %760 мм3.3 м/с2 %
    18:00Ясно и безоблачно+29°C64 %760 мм2.0 м/с2 %
    21:00Ясно и безоблачно+23°C80 %761 мм3.2 м/с2 %
  • 27февраля
    Вторник
    +20°
    +35°
    Ясно и безоблачно
    ВремяПогодаТемператураВлажностьДавлениеВетер, м/сВероятность осадков
    00:00Ясно и безоблачно+23°C81 %761 мм3.5 м/с2 %
    03:00Ясно и безоблачно+21°C76 %759 мм4.9 м/с2 %
    06:00Ясно и безоблачно+20°C86 %760 мм4.9 м/с2 %
    09:00Ясно и безоблачно+25°C73 %761 мм4.8 м/с2 %
    12:00Ясно и безоблачно+30°C52 %760 мм4.5 м/с2 %
    15:00Ясно и безоблачно+35°C43 %757 мм4.5 м/с2 %
    18:00Ясно и безоблачно+29°C58 %758 мм2.0 м/с2 %
    21:00Ясно и безоблачно+26°C57 %758 мм3.4 м/с2 %
Мы используем cookies
Соглашаюсь